sensor_id;sensor_type;location;lat;lon;timestamp;temperature;humidity
11491;DHT22;5802;52.832;4.758;2023-02-28T00:00:08;21.40;40.30
11491;DHT22;5802;52.832;4.758;2023-02-28T00:02:35;21.50;40.30
11491;DHT22;5802;52.832;4.758;2023-02-28T00:05:03;21.50;40.30
11491;DHT22;5802;52.832;4.758;2023-02-28T00:07:30;21.40;40.30
11491;DHT22;5802;52.832;4.758;2023-02-28T00:10:03;21.40;40.30
11491;DHT22;5802;52.832;4.758;2023-02-28T00:12:31;21.40;40.30
11491;DHT22;5802;52.832;4.758;2023-02-28T00:14:57;21.40;40.30
11491;DHT22;5802;52.832;4.758;2023-02-28T00:17:24;21.40;40.30
11491;DHT22;5802;52.832;4.758;2023-02-28T00:19:51;21.40;40.30
11491;DHT22;5802;52.832;4.758;2023-02-28T00:22:20;21.40;40.30
11491;DHT22;5802;52.832;4.758;2023-02-28T00:24:46;21.40;40.30
11491;DHT22;5802;52.832;4.758;2023-02-28T00:27:14;21.40;40.30
11491;DHT22;5802;52.832;4.758;2023-02-28T00:29:42;21.40;40.30
11491;DHT22;5802;52.832;4.758;2023-02-28T00:32:08;21.40;40.30
11491;DHT22;5802;52.832;4.758;2023-02-28T00:34:35;21.40;40.30
11491;DHT22;5802;52.832;4.758;2023-02-28T00:37:04;21.40;40.30
11491;DHT22;5802;52.832;4.758;2023-02-28T00:39:32;21.40;40.30
11491;DHT22;5802;52.832;4.758;2023-02-28T00:41:59;21.40;40.30
11491;DHT22;5802;52.832;4.758;2023-02-28T00:44:26;21.40;40.30
11491;DHT22;5802;52.832;4.758;2023-02-28T00:46:54;21.40;40.30
11491;DHT22;5802;52.832;4.758;2023-02-28T00:49:22;21.40;40.30
11491;DHT22;5802;52.832;4.758;2023-02-28T00:51:49;21.40;40.30
11491;DHT22;5802;52.832;4.758;2023-02-28T00:54:16;21.40;40.30
11491;DHT22;5802;52.832;4.758;2023-02-28T00:56:42;21.40;40.30
11491;DHT22;5802;52.832;4.758;2023-02-28T00:59:11;21.40;40.30
11491;DHT22;5802;52.832;4.758;2023-02-28T01:01:38;21.40;40.30
11491;DHT22;5802;52.832;4.758;2023-02-28T01:04:06;21.40;40.30
11491;DHT22;5802;52.832;4.758;2023-02-28T01:06:33;21.40;40.30
11491;DHT22;5802;52.832;4.758;2023-02-28T01:09:00;21.40;41.00
11491;DHT22;5802;52.832;4.758;2023-02-28T01:11:26;21.40;40.30
11491;DHT22;5802;52.832;4.758;2023-02-28T01:13:53;21.40;40.40
11491;DHT22;5802;52.832;4.758;2023-02-28T01:16:20;21.40;40.30
11491;DHT22;5802;52.832;4.758;2023-02-28T01:18:46;21.40;40.30
11491;DHT22;5802;52.832;4.758;2023-02-28T01:21:17;21.40;40.30
11491;DHT22;5802;52.832;4.758;2023-02-28T01:23:44;21.40;40.30
11491;DHT22;5802;52.832;4.758;2023-02-28T01:26:12;21.40;40.40
11491;DHT22;5802;52.832;4.758;2023-02-28T01:28:39;21.40;40.40
11491;DHT22;5802;52.832;4.758;2023-02-28T01:31:07;21.40;40.40
11491;DHT22;5802;52.832;4.758;2023-02-28T01:33:34;21.40;40.40
11491;DHT22;5802;52.832;4.758;2023-02-28T01:36:02;21.30;40.40
11491;DHT22;5802;52.832;4.758;2023-02-28T01:38:30;21.40;40.40
11491;DHT22;5802;52.832;4.758;2023-02-28T01:40:57;21.40;40.40
11491;DHT22;5802;52.832;4.758;2023-02-28T01:43:26;21.40;40.40
11491;DHT22;5802;52.832;4.758;2023-02-28T01:45:55;21.40;40.40
11491;DHT22;5802;52.832;4.758;2023-02-28T01:48:25;21.40;40.50
11491;DHT22;5802;52.832;4.758;2023-02-28T01:50:53;21.40;40.50
11491;DHT22;5802;52.832;4.758;2023-02-28T01:53:31;21.30;40.40
11491;DHT22;5802;52.832;4.758;2023-02-28T01:56:04;21.40;40.50
11491;DHT22;5802;52.832;4.758;2023-02-28T01:58:32;21.40;40.50
11491;DHT22;5802;52.832;4.758;2023-02-28T02:00:59;21.40;40.60
11491;DHT22;5802;52.832;4.758;2023-02-28T02:03:29;21.30;40.50
11491;DHT22;5802;52.832;4.758;2023-02-28T02:05:56;21.40;41.20
11491;DHT22;5802;52.832;4.758;2023-02-28T02:08:26;21.40;40.60
11491;DHT22;5802;52.832;4.758;2023-02-28T02:10:56;21.40;40.60
11491;DHT22;5802;52.832;4.758;2023-02-28T02:14:03;21.30;40.60
11491;DHT22;5802;52.832;4.758;2023-02-28T02:16:38;21.40;40.60
11491;DHT22;5802;52.832;4.758;2023-02-28T02:19:18;21.40;40.70
11491;DHT22;5802;52.832;4.758;2023-02-28T02:22:07;21.40;40.70
11491;DHT22;5802;52.832;4.758;2023-02-28T02:24:50;21.40;40.70
11491;DHT22;5802;52.832;4.758;2023-02-28T02:30:50;21.40;40.70
11491;DHT22;5802;52.832;4.758;2023-02-28T02:33:32;21.30;40.70
11491;DHT22;5802;52.832;4.758;2023-02-28T02:36:13;21.30;40.70
11491;DHT22;5802;52.832;4.758;2023-02-28T02:38:48;21.30;40.80
11491;DHT22;5802;52.832;4.758;2023-02-28T02:41:19;21.30;40.80
11491;DHT22;5802;52.832;4.758;2023-02-28T02:43:51;21.30;40.80
11491;DHT22;5802;52.832;4.758;2023-02-28T02:46:21;21.40;41.50
11491;DHT22;5802;52.832;4.758;2023-02-28T02:48:52;21.40;40.80
11491;DHT22;5802;52.832;4.758;2023-02-28T02:51:23;21.30;40.70
11491;DHT22;5802;52.832;4.758;2023-02-28T02:53:54;21.40;40.80
11491;DHT22;5802;52.832;4.758;2023-02-28T02:56:27;21.40;40.80
11491;DHT22;5802;52.832;4.758;2023-02-28T02:59:01;21.30;40.70
11491;DHT22;5802;52.832;4.758;2023-02-28T03:01:30;21.30;40.70
11491;DHT22;5802;52.832;4.758;2023-02-28T03:04:00;21.40;40.70
11491;DHT22;5802;52.832;4.758;2023-02-28T03:06:29;21.40;40.70
11491;DHT22;5802;52.832;4.758;2023-02-28T03:08:55;21.40;40.70
11491;DHT22;5802;52.832;4.758;2023-02-28T03:11:22;21.40;40.70
11491;DHT22;5802;52.832;4.758;2023-02-28T03:13:58;21.40;40.70
11491;DHT22;5802;52.832;4.758;2023-02-28T03:16:33;21.40;40.70
11491;DHT22;5802;52.832;4.758;2023-02-28T03:24:48;21.40;40.70
11491;DHT22;5802;52.832;4.758;2023-02-28T03:27:23;21.40;40.80
11491;DHT22;5802;52.832;4.758;2023-02-28T03:29:53;21.40;40.70
11491;DHT22;5802;52.832;4.758;2023-02-28T03:32:25;21.40;40.70
11491;DHT22;5802;52.832;4.758;2023-02-28T03:34:56;21.40;40.70
11491;DHT22;5802;52.832;4.758;2023-02-28T03:37:28;21.40;40.70
11491;DHT22;5802;52.832;4.758;2023-02-28T03:40:00;21.40;40.70
11491;DHT22;5802;52.832;4.758;2023-02-28T03:42:29;21.40;40.70
11491;DHT22;5802;52.832;4.758;2023-02-28T03:44:59;21.40;40.70
11491;DHT22;5802;52.832;4.758;2023-02-28T03:47:29;21.40;40.70
11491;DHT22;5802;52.832;4.758;2023-02-28T03:50:04;21.40;40.70
11491;DHT22;5802;52.832;4.758;2023-02-28T03:52:38;21.40;40.70
11491;DHT22;5802;52.832;4.758;2023-02-28T03:55:08;21.40;40.70
11491;DHT22;5802;52.832;4.758;2023-02-28T03:57:40;21.40;40.60
11491;DHT22;5802;52.832;4.758;2023-02-28T04:00:13;21.40;40.60
11491;DHT22;5802;52.832;4.758;2023-02-28T04:02:41;21.50;40.60
11491;DHT22;5802;52.832;4.758;2023-02-28T04:05:08;21.40;40.60
11491;DHT22;5802;52.832;4.758;2023-02-28T04:07:36;21.50;40.60
11491;DHT22;5802;52.832;4.758;2023-02-28T04:10:04;21.50;40.60
11491;DHT22;5802;52.832;4.758;2023-02-28T04:12:31;21.50;40.60
11491;DHT22;5802;52.832;4.758;2023-02-28T04:14:58;21.50;40.60
11491;DHT22;5802;52.832;4.758;2023-02-28T04:17:24;21.40;40.50
11491;DHT22;5802;52.832;4.758;2023-02-28T04:19:51;21.50;40.60
11491;DHT22;5802;52.832;4.758;2023-02-28T04:22:19;21.50;40.60
11491;DHT22;5802;52.832;4.758;2023-02-28T04:24:47;21.50;40.50
11491;DHT22;5802;52.832;4.758;2023-02-28T04:27:14;21.50;40.50
11491;DHT22;5802;52.832;4.758;2023-02-28T04:29:41;21.50;40.50
11491;DHT22;5802;52.832;4.758;2023-02-28T04:32:10;21.50;40.50
11491;DHT22;5802;52.832;4.758;2023-02-28T04:34:37;21.50;40.50
11491;DHT22;5802;52.832;4.758;2023-02-28T04:37:04;21.50;40.50
11491;DHT22;5802;52.832;4.758;2023-02-28T04:39:35;21.50;40.50
11491;DHT22;5802;52.832;4.758;2023-02-28T04:42:03;21.50;40.50
11491;DHT22;5802;52.832;4.758;2023-02-28T04:44:30;21.50;40.50
11491;DHT22;5802;52.832;4.758;2023-02-28T04:46:56;21.50;40.50
11491;DHT22;5802;52.832;4.758;2023-02-28T04:49:23;21.50;40.40
11491;DHT22;5802;52.832;4.758;2023-02-28T04:51:50;21.50;40.50
11491;DHT22;5802;52.832;4.758;2023-02-28T04:54:18;21.50;40.40
11491;DHT22;5802;52.832;4.758;2023-02-28T04:56:45;21.50;40.30
11491;DHT22;5802;52.832;4.758;2023-02-28T04:59:13;21.50;40.30
11491;DHT22;5802;52.832;4.758;2023-02-28T05:01:40;21.50;40.30
11491;DHT22;5802;52.832;4.758;2023-02-28T05:04:06;21.50;40.40
11491;DHT22;5802;52.832;4.758;2023-02-28T05:06:33;21.50;40.40
11491;DHT22;5802;52.832;4.758;2023-02-28T05:09:00;21.50;40.40
11491;DHT22;5802;52.832;4.758;2023-02-28T05:11:29;21.50;40.30
11491;DHT22;5802;52.832;4.758;2023-02-28T05:14:00;21.50;40.30
11491;DHT22;5802;52.832;4.758;2023-02-28T05:16:28;21.50;40.40
11491;DHT22;5802;52.832;4.758;2023-02-28T05:18:54;21.50;40.30
11491;DHT22;5802;52.832;4.758;2023-02-28T05:21:25;21.50;40.30
11491;DHT22;5802;52.832;4.758;2023-02-28T05:23:52;21.50;40.30
11491;DHT22;5802;52.832;4.758;2023-02-28T05:26:19;21.50;40.30
11491;DHT22;5802;52.832;4.758;2023-02-28T05:28:46;21.60;40.30
11491;DHT22;5802;52.832;4.758;2023-02-28T05:31:12;21.60;40.30
11491;DHT22;5802;52.832;4.758;2023-02-28T05:33:41;21.60;40.30
11491;DHT22;5802;52.832;4.758;2023-02-28T05:36:08;21.60;40.30
11491;DHT22;5802;52.832;4.758;2023-02-28T05:38:35;21.60;40.30
11491;DHT22;5802;52.832;4.758;2023-02-28T05:41:05;21.60;40.30
11491;DHT22;5802;52.832;4.758;2023-02-28T05:43:32;21.60;40.20
11491;DHT22;5802;52.832;4.758;2023-02-28T05:45:58;21.60;40.20
11491;DHT22;5802;52.832;4.758;2023-02-28T05:48:25;21.60;40.20
11491;DHT22;5802;52.832;4.758;2023-02-28T05:50:53;21.60;40.20
11491;DHT22;5802;52.832;4.758;2023-02-28T05:53:20;21.60;40.20
11491;DHT22;5802;52.832;4.758;2023-02-28T05:55:47;21.60;40.10
11491;DHT22;5802;52.832;4.758;2023-02-28T05:58:14;21.70;40.20
11491;DHT22;5802;52.832;4.758;2023-02-28T06:00:40;21.70;40.20
11491;DHT22;5802;52.832;4.758;2023-02-28T06:03:07;21.60;40.70
11491;DHT22;5802;52.832;4.758;2023-02-28T06:05:34;21.60;40.10
11491;DHT22;5802;52.832;4.758;2023-02-28T06:08:02;21.60;40.10
11491;DHT22;5802;52.832;4.758;2023-02-28T06:10:28;21.60;40.10
11491;DHT22;5802;52.832;4.758;2023-02-28T06:12:55;21.70;40.10
11491;DHT22;5802;52.832;4.758;2023-02-28T06:15:25;21.70;40.00
11491;DHT22;5802;52.832;4.758;2023-02-28T06:17:52;21.70;40.00
11491;DHT22;5802;52.832;4.758;2023-02-28T06:20:19;21.70;40.00
11491;DHT22;5802;52.832;4.758;2023-02-28T06:22:45;21.70;40.00
11491;DHT22;5802;52.832;4.758;2023-02-28T06:25:13;21.70;40.00
11491;DHT22;5802;52.832;4.758;2023-02-28T06:27:40;21.70;40.00
11491;DHT22;5802;52.832;4.758;2023-02-28T06:30:08;21.70;40.00
11491;DHT22;5802;52.832;4.758;2023-02-28T06:32:35;21.70;40.00
11491;DHT22;5802;52.832;4.758;2023-02-28T06:35:02;21.70;40.00
11491;DHT22;5802;52.832;4.758;2023-02-28T06:37:30;21.70;40.00
11491;DHT22;5802;52.832;4.758;2023-02-28T06:39:57;21.70;40.00
11491;DHT22;5802;52.832;4.758;2023-02-28T06:42:25;21.70;39.90
11491;DHT22;5802;52.832;4.758;2023-02-28T06:44:54;21.70;40.00
11491;DHT22;5802;52.832;4.758;2023-02-28T06:47:21;21.70;39.90
11491;DHT22;5802;52.832;4.758;2023-02-28T06:49:48;21.70;40.00
11491;DHT22;5802;52.832;4.758;2023-02-28T06:52:15;21.70;39.90
11491;DHT22;5802;52.832;4.758;2023-02-28T06:54:42;21.70;39.90
11491;DHT22;5802;52.832;4.758;2023-02-28T06:57:09;21.70;39.90
11491;DHT22;5802;52.832;4.758;2023-02-28T06:59:37;21.70;39.90
11491;DHT22;5802;52.832;4.758;2023-02-28T07:02:03;21.70;39.90
11491;DHT22;5802;52.832;4.758;2023-02-28T07:04:31;21.70;39.90
11491;DHT22;5802;52.832;4.758;2023-02-28T07:06:58;21.70;39.90
11491;DHT22;5802;52.832;4.758;2023-02-28T07:09:25;21.70;39.90
11491;DHT22;5802;52.832;4.758;2023-02-28T07:11:55;21.70;40.00
11491;DHT22;5802;52.832;4.758;2023-02-28T07:14:22;21.70;39.90
11491;DHT22;5802;52.832;4.758;2023-02-28T07:16:50;21.70;39.90
11491;DHT22;5802;52.832;4.758;2023-02-28T07:19:16;21.70;40.00
11491;DHT22;5802;52.832;4.758;2023-02-28T07:21:43;21.70;40.00
11491;DHT22;5802;52.832;4.758;2023-02-28T07:24:10;21.70;40.10
11491;DHT22;5802;52.832;4.758;2023-02-28T07:26:37;21.70;40.10
11491;DHT22;5802;52.832;4.758;2023-02-28T07:29:04;21.70;40.10
11491;DHT22;5802;52.832;4.758;2023-02-28T07:31:31;21.70;40.10
11491;DHT22;5802;52.832;4.758;2023-02-28T07:33:59;21.70;40.10
11491;DHT22;5802;52.832;4.758;2023-02-28T07:36:25;21.80;40.20
11491;DHT22;5802;52.832;4.758;2023-02-28T07:38:52;21.70;40.10
11491;DHT22;5802;52.832;4.758;2023-02-28T07:41:20;21.70;40.10
11491;DHT22;5802;52.832;4.758;2023-02-28T07:43:48;21.80;40.10
11491;DHT22;5802;52.832;4.758;2023-02-28T07:46:16;21.70;40.10
11491;DHT22;5802;52.832;4.758;2023-02-28T07:48:44;21.70;40.10
11491;DHT22;5802;52.832;4.758;2023-02-28T07:51:12;21.70;40.10
11491;DHT22;5802;52.832;4.758;2023-02-28T07:53:38;21.80;40.20
11491;DHT22;5802;52.832;4.758;2023-02-28T07:56:06;21.70;40.10
11491;DHT22;5802;52.832;4.758;2023-02-28T07:58:33;21.70;40.10
11491;DHT22;5802;52.832;4.758;2023-02-28T08:01:05;21.80;40.10
11491;DHT22;5802;52.832;4.758;2023-02-28T08:03:32;21.80;40.10
11491;DHT22;5802;52.832;4.758;2023-02-28T08:05:59;21.80;40.10
11491;DHT22;5802;52.832;4.758;2023-02-28T08:08:29;21.80;40.20
11491;DHT22;5802;52.832;4.758;2023-02-28T08:10:58;21.80;40.20
11491;DHT22;5802;52.832;4.758;2023-02-28T08:13:26;21.80;40.10
11491;DHT22;5802;52.832;4.758;2023-02-28T08:15:53;21.80;40.10
11491;DHT22;5802;52.832;4.758;2023-02-28T08:18:21;21.80;40.20
11491;DHT22;5802;52.832;4.758;2023-02-28T08:20:48;21.80;40.10
11491;DHT22;5802;52.832;4.758;2023-02-28T08:23:15;21.80;40.10
11491;DHT22;5802;52.832;4.758;2023-02-28T08:25:42;21.80;40.10
11491;DHT22;5802;52.832;4.758;2023-02-28T08:28:09;21.80;40.10
11491;DHT22;5802;52.832;4.758;2023-02-28T08:30:36;21.80;40.10
11491;DHT22;5802;52.832;4.758;2023-02-28T08:33:03;21.80;40.10
11491;DHT22;5802;52.832;4.758;2023-02-28T08:35:30;21.80;40.10
11491;DHT22;5802;52.832;4.758;2023-02-28T08:37:56;21.80;40.10
11491;DHT22;5802;52.832;4.758;2023-02-28T08:40:23;21.80;40.00
11491;DHT22;5802;52.832;4.758;2023-02-28T08:42:51;21.80;40.00
11491;DHT22;5802;52.832;4.758;2023-02-28T08:45:18;21.80;40.00
11491;DHT22;5802;52.832;4.758;2023-02-28T08:47:45;21.80;40.00
11491;DHT22;5802;52.832;4.758;2023-02-28T08:50:11;21.80;40.00
11491;DHT22;5802;52.832;4.758;2023-02-28T08:52:42;21.80;40.00
11491;DHT22;5802;52.832;4.758;2023-02-28T08:55:09;21.80;40.00
11491;DHT22;5802;52.832;4.758;2023-02-28T08:57:35;21.80;40.00
11491;DHT22;5802;52.832;4.758;2023-02-28T09:00:05;21.80;40.00
11491;DHT22;5802;52.832;4.758;2023-02-28T09:02:33;21.80;40.00
11491;DHT22;5802;52.832;4.758;2023-02-28T09:05:00;21.80;40.00
11491;DHT22;5802;52.832;4.758;2023-02-28T09:07:26;21.80;39.90
11491;DHT22;5802;52.832;4.758;2023-02-28T09:09:53;21.80;40.60
11491;DHT22;5802;52.832;4.758;2023-02-28T09:12:20;21.80;39.90
11491;DHT22;5802;52.832;4.758;2023-02-28T09:14:47;21.80;39.90
11491;DHT22;5802;52.832;4.758;2023-02-28T09:17:15;21.80;39.90
11491;DHT22;5802;52.832;4.758;2023-02-28T09:19:42;21.80;39.90
11491;DHT22;5802;52.832;4.758;2023-02-28T09:22:09;21.80;39.90
11491;DHT22;5802;52.832;4.758;2023-02-28T09:24:36;21.80;39.80
11491;DHT22;5802;52.832;4.758;2023-02-28T09:27:03;21.80;39.80
11491;DHT22;5802;52.832;4.758;2023-02-28T09:29:30;21.80;39.80
11491;DHT22;5802;52.832;4.758;2023-02-28T09:31:56;21.80;39.80
11491;DHT22;5802;52.832;4.758;2023-02-28T09:34:25;21.80;39.80
11491;DHT22;5802;52.832;4.758;2023-02-28T09:36:52;21.80;39.70
11491;DHT22;5802;52.832;4.758;2023-02-28T09:39:20;21.90;39.80
11491;DHT22;5802;52.832;4.758;2023-02-28T09:41:50;21.80;39.80
11491;DHT22;5802;52.832;4.758;2023-02-28T09:44:22;21.80;39.80
11491;DHT22;5802;52.832;4.758;2023-02-28T09:46:55;21.90;39.90
11491;DHT22;5802;52.832;4.758;2023-02-28T09:49:31;21.90;40.00
11491;DHT22;5802;52.832;4.758;2023-02-28T09:52:02;21.90;40.00
11491;DHT22;5802;52.832;4.758;2023-02-28T09:54:30;21.90;39.90
11491;DHT22;5802;52.832;4.758;2023-02-28T09:57:00;21.90;39.90
11491;DHT22;5802;52.832;4.758;2023-02-28T09:59:39;21.90;39.90
11491;DHT22;5802;52.832;4.758;2023-02-28T10:02:19;21.90;39.90
11491;DHT22;5802;52.832;4.758;2023-02-28T10:04:51;21.90;39.90
11491;DHT22;5802;52.832;4.758;2023-02-28T10:07:32;22.00;39.90
11491;DHT22;5802;52.832;4.758;2023-02-28T10:10:06;21.90;39.80
11491;DHT22;5802;52.832;4.758;2023-02-28T10:12:36;22.00;39.90
11491;DHT22;5802;52.832;4.758;2023-02-28T10:15:13;22.00;39.90
11491;DHT22;5802;52.832;4.758;2023-02-28T10:17:43;22.00;39.90
11491;DHT22;5802;52.832;4.758;2023-02-28T10:20:17;22.00;39.90
11491;DHT22;5802;52.832;4.758;2023-02-28T10:22:52;22.00;39.90
11491;DHT22;5802;52.832;4.758;2023-02-28T10:25:22;22.00;39.90
11491;DHT22;5802;52.832;4.758;2023-02-28T10:27:50;22.00;39.80
11491;DHT22;5802;52.832;4.758;2023-02-28T10:30:20;22.10;39.90
11491;DHT22;5802;52.832;4.758;2023-02-28T10:32:50;22.10;39.70
11491;DHT22;5802;52.832;4.758;2023-02-28T10:35:21;22.10;39.60
11491;DHT22;5802;52.832;4.758;2023-02-28T10:37:50;22.10;39.60
11491;DHT22;5802;52.832;4.758;2023-02-28T10:40:30;22.10;39.60
11491;DHT22;5802;52.832;4.758;2023-02-28T10:42:59;22.10;39.60
11491;DHT22;5802;52.832;4.758;2023-02-28T10:45:28;22.10;39.70
11491;DHT22;5802;52.832;4.758;2023-02-28T10:47:57;22.10;40.10
11491;DHT22;5802;52.832;4.758;2023-02-28T10:50:33;22.10;40.30
11491;DHT22;5802;52.832;4.758;2023-02-28T10:53:28;22.20;40.50
11491;DHT22;5802;52.832;4.758;2023-02-28T10:55:59;22.20;40.40
11491;DHT22;5802;52.832;4.758;2023-02-28T10:58:28;22.20;40.30
11491;DHT22;5802;52.832;4.758;2023-02-28T11:00:55;22.30;40.20
11491;DHT22;5802;52.832;4.758;2023-02-28T11:03:31;22.30;40.10
11491;DHT22;5802;52.832;4.758;2023-02-28T11:06:05;22.30;40.00
11491;DHT22;5802;52.832;4.758;2023-02-28T11:08:33;22.40;39.90
11491;DHT22;5802;52.832;4.758;2023-02-28T11:11:04;22.40;39.70
11491;DHT22;5802;52.832;4.758;2023-02-28T11:13:34;22.50;39.70
11491;DHT22;5802;52.832;4.758;2023-02-28T11:16:04;22.50;39.70
11491;DHT22;5802;52.832;4.758;2023-02-28T11:18:37;22.60;39.50
11491;DHT22;5802;52.832;4.758;2023-02-28T11:21:08;22.70;39.40
11491;DHT22;5802;52.832;4.758;2023-02-28T11:23:37;22.70;39.40
11491;DHT22;5802;52.832;4.758;2023-02-28T11:26:06;22.70;39.40
11491;DHT22;5802;52.832;4.758;2023-02-28T11:28:38;22.80;39.40
11491;DHT22;5802;52.832;4.758;2023-02-28T11:31:15;22.80;39.40
11491;DHT22;5802;52.832;4.758;2023-02-28T11:33:45;22.90;39.40
11491;DHT22;5802;52.832;4.758;2023-02-28T11:36:19;22.90;39.40
11491;DHT22;5802;52.832;4.758;2023-02-28T11:38:47;23.00;39.40
11491;DHT22;5802;52.832;4.758;2023-02-28T11:41:30;23.00;39.30
11491;DHT22;5802;52.832;4.758;2023-02-28T11:44:20;23.10;39.90
11491;DHT22;5802;52.832;4.758;2023-02-28T11:46:50;23.10;39.30
11491;DHT22;5802;52.832;4.758;2023-02-28T11:49:32;23.20;39.30
11491;DHT22;5802;52.832;4.758;2023-02-28T11:52:06;23.20;39.50
11491;DHT22;5802;52.832;4.758;2023-02-28T11:55:01;23.30;39.50
11491;DHT22;5802;52.832;4.758;2023-02-28T11:57:36;23.30;39.40
11491;DHT22;5802;52.832;4.758;2023-02-28T12:00:15;23.40;39.40
11491;DHT22;5802;52.832;4.758;2023-02-28T12:02:59;23.40;39.30
11491;DHT22;5802;52.832;4.758;2023-02-28T12:05:33;23.50;39.20
11491;DHT22;5802;52.832;4.758;2023-02-28T12:08:13;23.50;39.10
11491;DHT22;5802;52.832;4.758;2023-02-28T12:10:52;23.60;39.00
11491;DHT22;5802;52.832;4.758;2023-02-28T12:13:24;23.60;38.90
11491;DHT22;5802;52.832;4.758;2023-02-28T12:16:10;23.70;38.80
11491;DHT22;5802;52.832;4.758;2023-02-28T12:18:58;23.70;38.70
11491;DHT22;5802;52.832;4.758;2023-02-28T12:21:33;23.90;38.50
11491;DHT22;5802;52.832;4.758;2023-02-28T12:24:26;24.00;38.10
11491;DHT22;5802;52.832;4.758;2023-02-28T12:26:57;24.00;37.90
11491;DHT22;5802;52.832;4.758;2023-02-28T12:29:29;24.10;38.70
11491;DHT22;5802;52.832;4.758;2023-02-28T12:32:06;24.00;37.90
11491;DHT22;5802;52.832;4.758;2023-02-28T12:34:37;24.00;37.90
11491;DHT22;5802;52.832;4.758;2023-02-28T12:37:07;24.10;37.90
11491;DHT22;5802;52.832;4.758;2023-02-28T12:39:40;24.20;37.80
11491;DHT22;5802;52.832;4.758;2023-02-28T12:42:12;24.20;37.80
11491;DHT22;5802;52.832;4.758;2023-02-28T12:44:44;24.20;37.70
11491;DHT22;5802;52.832;4.758;2023-02-28T12:47:15;24.20;37.60
11491;DHT22;5802;52.832;4.758;2023-02-28T12:49:46;24.20;37.50
11491;DHT22;5802;52.832;4.758;2023-02-28T12:52:19;24.30;37.50
11491;DHT22;5802;52.832;4.758;2023-02-28T12:54:52;24.30;37.50
11491;DHT22;5802;52.832;4.758;2023-02-28T12:57:25;24.30;37.40
11491;DHT22;5802;52.832;4.758;2023-02-28T12:59:57;24.40;37.40
11491;DHT22;5802;52.832;4.758;2023-02-28T13:02:42;24.40;37.20
11491;DHT22;5802;52.832;4.758;2023-02-28T13:05:26;24.50;37.30
11491;DHT22;5802;52.832;4.758;2023-02-28T13:08:21;24.60;37.00
11491;DHT22;5802;52.832;4.758;2023-02-28T13:10:52;24.60;36.90
11491;DHT22;5802;52.832;4.758;2023-02-28T13:13:22;24.60;37.00
11491;DHT22;5802;52.832;4.758;2023-02-28T13:16:01;24.60;36.90
11491;DHT22;5802;52.832;4.758;2023-02-28T13:18:32;24.70;36.90
11491;DHT22;5802;52.832;4.758;2023-02-28T13:21:00;24.70;36.90
11491;DHT22;5802;52.832;4.758;2023-02-28T13:23:40;24.70;36.80
11491;DHT22;5802;52.832;4.758;2023-02-28T13:26:08;24.70;36.80
11491;DHT22;5802;52.832;4.758;2023-02-28T13:28:59;24.70;36.80
11491;DHT22;5802;52.832;4.758;2023-02-28T13:31:26;24.70;36.70
11491;DHT22;5802;52.832;4.758;2023-02-28T13:34:06;24.70;36.70
11491;DHT22;5802;52.832;4.758;2023-02-28T13:36:38;24.70;36.70
11491;DHT22;5802;52.832;4.758;2023-02-28T13:39:46;24.70;36.70
11491;DHT22;5802;52.832;4.758;2023-02-28T13:42:32;24.70;36.60
11491;DHT22;5802;52.832;4.758;2023-02-28T13:45:24;24.70;36.70
11491;DHT22;5802;52.832;4.758;2023-02-28T13:47:53;24.70;36.60
11491;DHT22;5802;52.832;4.758;2023-02-28T13:50:24;24.60;36.60
11491;DHT22;5802;52.832;4.758;2023-02-28T13:55:46;24.60;36.80
11491;DHT22;5802;52.832;4.758;2023-02-28T13:58:39;24.70;36.90
11491;DHT22;5802;52.832;4.758;2023-02-28T14:01:31;24.70;36.90
11491;DHT22;5802;52.832;4.758;2023-02-28T14:04:22;24.70;37.50
11491;DHT22;5802;52.832;4.758;2023-02-28T14:06:54;24.70;36.90
11491;DHT22;5802;52.832;4.758;2023-02-28T14:09:25;24.70;36.90
11491;DHT22;5802;52.832;4.758;2023-02-28T14:11:54;24.70;36.90
11491;DHT22;5802;52.832;4.758;2023-02-28T14:14:56;24.70;37.50
11491;DHT22;5802;52.832;4.758;2023-02-28T14:17:24;24.70;36.80
11491;DHT22;5802;52.832;4.758;2023-02-28T14:19:52;24.70;36.80
11491;DHT22;5802;52.832;4.758;2023-02-28T14:22:38;24.70;36.80
11491;DHT22;5802;52.832;4.758;2023-02-28T14:25:18;24.70;36.80
11491;DHT22;5802;52.832;4.758;2023-02-28T14:27:50;24.70;36.80
11491;DHT22;5802;52.832;4.758;2023-02-28T14:30:48;24.70;36.70
11491;DHT22;5802;52.832;4.758;2023-02-28T14:33:26;24.70;36.70
11491;DHT22;5802;52.832;4.758;2023-02-28T14:36:14;24.70;36.70
11491;DHT22;5802;52.832;4.758;2023-02-28T14:38:45;24.70;36.70
11491;DHT22;5802;52.832;4.758;2023-02-28T14:41:21;24.70;36.70
11491;DHT22;5802;52.832;4.758;2023-02-28T14:43:54;24.70;36.60
11491;DHT22;5802;52.832;4.758;2023-02-28T14:46:25;24.70;36.60
11491;DHT22;5802;52.832;4.758;2023-02-28T14:48:53;24.70;36.60
11491;DHT22;5802;52.832;4.758;2023-02-28T14:51:21;24.70;36.70
11491;DHT22;5802;52.832;4.758;2023-02-28T14:53:51;24.70;36.70
11491;DHT22;5802;52.832;4.758;2023-02-28T14:56:24;24.80;36.60
11491;DHT22;5802;52.832;4.758;2023-02-28T14:58:54;24.70;36.60
11491;DHT22;5802;52.832;4.758;2023-02-28T15:01:24;24.70;36.60
11491;DHT22;5802;52.832;4.758;2023-02-28T15:03:59;24.70;36.60
11491;DHT22;5802;52.832;4.758;2023-02-28T15:06:27;24.70;36.70
11491;DHT22;5802;52.832;4.758;2023-02-28T15:09:15;24.70;36.70
11491;DHT22;5802;52.832;4.758;2023-02-28T15:11:46;24.70;36.70
11491;DHT22;5802;52.832;4.758;2023-02-28T15:14:20;24.70;36.80
11491;DHT22;5802;52.832;4.758;2023-02-28T15:16:52;24.70;36.70
11491;DHT22;5802;52.832;4.758;2023-02-28T15:19:24;24.70;36.70
11491;DHT22;5802;52.832;4.758;2023-02-28T15:21:55;24.70;36.70
11491;DHT22;5802;52.832;4.758;2023-02-28T15:24:30;24.70;36.60
11491;DHT22;5802;52.832;4.758;2023-02-28T15:27:02;24.80;36.70
11491;DHT22;5802;52.832;4.758;2023-02-28T15:29:34;24.70;36.60
11491;DHT22;5802;52.832;4.758;2023-02-28T15:32:07;24.70;36.50
11491;DHT22;5802;52.832;4.758;2023-02-28T15:34:36;24.80;36.60
11491;DHT22;5802;52.832;4.758;2023-02-28T15:37:07;24.80;36.50
11491;DHT22;5802;52.832;4.758;2023-02-28T15:39:51;24.80;36.50
11491;DHT22;5802;52.832;4.758;2023-02-28T15:42:20;24.80;36.50
11491;DHT22;5802;52.832;4.758;2023-02-28T15:44:47;24.80;36.50
11491;DHT22;5802;52.832;4.758;2023-02-28T15:47:18;24.80;36.40
11491;DHT22;5802;52.832;4.758;2023-02-28T15:49:52;24.70;36.30
11491;DHT22;5802;52.832;4.758;2023-02-28T15:52:22;24.70;36.30
11491;DHT22;5802;52.832;4.758;2023-02-28T15:54:51;24.70;36.30
11491;DHT22;5802;52.832;4.758;2023-02-28T15:57:21;24.70;36.30
11491;DHT22;5802;52.832;4.758;2023-02-28T15:59:54;24.70;36.30
11491;DHT22;5802;52.832;4.758;2023-02-28T16:02:30;24.70;36.30
11491;DHT22;5802;52.832;4.758;2023-02-28T16:05:00;24.70;36.30
11491;DHT22;5802;52.832;4.758;2023-02-28T16:07:27;24.70;36.30
11491;DHT22;5802;52.832;4.758;2023-02-28T16:09:54;24.70;36.50
11491;DHT22;5802;52.832;4.758;2023-02-28T16:12:25;24.70;36.30
11491;DHT22;5802;52.832;4.758;2023-02-28T16:14:53;24.70;36.30
11491;DHT22;5802;52.832;4.758;2023-02-28T16:17:24;24.70;36.30
11491;DHT22;5802;52.832;4.758;2023-02-28T16:19:51;24.70;36.30